createdAt,value
2023-02-04T00:01:19.419Z,2.76
2023-02-04T00:06:23.593Z,2.76
2023-02-04T00:11:28.001Z,2.51
2023-02-04T00:16:33.880Z,1.96
2023-02-04T00:21:38.442Z,1.74
2023-02-04T00:26:42.749Z,1.63
2023-02-04T00:31:48.824Z,1.65
2023-02-04T00:36:53.262Z,1.62
2023-02-04T00:41:57.718Z,1.55
2023-02-04T00:47:03.449Z,1.48
2023-02-04T00:52:07.780Z,1.48
2023-02-04T00:57:11.936Z,1.46
2023-02-04T01:02:18.529Z,1.46
2023-02-04T01:07:23.197Z,1.57
2023-02-04T01:12:28.789Z,1.61
2023-02-04T01:17:35.144Z,1.60
2023-02-04T01:22:39.532Z,1.61
2023-02-04T01:27:45.605Z,1.62
2023-02-04T01:32:51.385Z,1.54
2023-02-04T01:37:55.926Z,1.46
2023-02-04T01:43:00.430Z,1.36
2023-02-04T01:48:07.385Z,1.21
2023-02-04T01:53:11.714Z,1.08
2023-02-04T01:58:16.409Z,0.97
2023-02-04T02:03:22.745Z,0.92
2023-02-04T02:08:27.200Z,0.82
2023-02-04T02:13:31.679Z,0.80
2023-02-04T02:18:38.483Z,0.83
2023-02-04T02:23:51.871Z,0.75
2023-02-04T02:28:57.023Z,0.71
2023-02-04T02:34:01.142Z,0.69
2023-02-04T02:39:07.139Z,0.58
2023-02-04T02:44:14.015Z,0.52
2023-02-04T02:49:20.933Z,0.42
2023-02-04T02:54:31.237Z,0.18
2023-02-04T02:59:39.313Z,-0.11
2023-02-04T03:04:47.603Z,-0.38
2023-02-04T03:09:55.044Z,-0.46
2023-02-04T03:14:59.937Z,-0.47
2023-02-04T03:20:07.410Z,-0.69
2023-02-04T03:25:13.443Z,-0.80
2023-02-04T03:30:18.385Z,-0.86
2023-02-04T03:35:22.717Z,-1.08
2023-02-04T03:40:30.415Z,-1.22
2023-02-04T03:45:44.949Z,-1.29
2023-02-04T03:50:50.067Z,-1.28
2023-02-04T03:55:55.704Z,-1.35
2023-02-04T04:01:00.269Z,-1.34
2023-02-04T04:06:06.451Z,-1.45
2023-02-04T04:11:12.174Z,-1.45
2023-02-04T04:16:16.811Z,-1.54
2023-02-04T04:21:21.350Z,-1.54
2023-02-04T04:26:27.292Z,-1.65
2023-02-04T04:31:31.785Z,-1.70
2023-02-04T04:36:36.149Z,-1.70
2023-02-04T04:41:41.807Z,-1.74
2023-02-04T04:46:46.191Z,-1.85
2023-02-04T04:51:50.347Z,-1.87
2023-02-04T04:56:56.080Z,-1.90
2023-02-04T05:02:00.333Z,-1.91
2023-02-04T05:07:04.543Z,-1.91
2023-02-04T05:12:10.382Z,-1.94
2023-02-04T05:17:14.739Z,-1.96
2023-02-04T05:22:19.020Z,-2.01
2023-02-04T05:27:24.421Z,-1.99
2023-02-04T05:32:28.552Z,-1.91
2023-02-04T05:37:33.029Z,-1.97
2023-02-04T05:42:38.441Z,-1.94
2023-02-04T05:47:43.049Z,-1.91
2023-02-04T05:52:46.977Z,-1.89
2023-02-04T05:57:52.378Z,-1.90
2023-02-04T06:02:56.935Z,-1.95
2023-02-04T06:08:01.262Z,-1.96
2023-02-04T06:13:07.044Z,-1.91
2023-02-04T06:18:11.750Z,-1.93
2023-02-04T06:23:16.679Z,-1.95
2023-02-04T06:28:22.177Z,-1.95
2023-02-04T06:33:26.614Z,-1.92
2023-02-04T06:38:30.782Z,-1.91
2023-02-04T06:43:36.363Z,-1.86
2023-02-04T06:48:40.421Z,-1.85
2023-02-04T06:53:46.007Z,-1.82
2023-02-04T06:58:51.597Z,-1.85
2023-02-04T07:03:55.974Z,-1.82
2023-02-04T07:09:00.334Z,-1.73
2023-02-04T07:14:06.379Z,-1.74
2023-02-04T07:19:10.864Z,-1.76
2023-02-04T07:24:15.106Z,-1.68
2023-02-04T07:29:25.744Z,-1.64
2023-02-04T07:34:30.311Z,-1.66
2023-02-04T07:39:35.168Z,-1.48
2023-02-04T07:44:40.654Z,-1.40
2023-02-04T07:49:45.060Z,-1.22
2023-02-04T07:54:49.189Z,-1.06
2023-02-04T07:59:54.870Z,-0.94
2023-02-04T08:04:59.405Z,-1.15
2023-02-04T08:10:03.661Z,-1.33
2023-02-04T08:15:10.615Z,-1.38
2023-02-04T08:20:14.751Z,-1.41
2023-02-04T08:25:21.413Z,-1.30
2023-02-04T08:30:26.898Z,-1.22
2023-02-04T08:35:31.014Z,-1.20
2023-02-04T08:40:35.443Z,-1.20
2023-02-04T08:45:41.737Z,-1.29
2023-02-04T08:50:46.285Z,-1.37
2023-02-04T08:55:50.427Z,-1.51
2023-02-04T09:00:56.198Z,-1.54
2023-02-04T09:06:00.341Z,-1.47
2023-02-04T09:11:05.777Z,-1.27
2023-02-04T09:16:11.910Z,-1.29
2023-02-04T09:21:16.179Z,-1.52
2023-02-04T09:26:21.122Z,-1.19
2023-02-04T09:31:27.254Z,-1.24
2023-02-04T09:36:34.416Z,-1.15
2023-02-04T09:41:40.529Z,-1.04
2023-02-04T09:46:51.706Z,-1.20
2023-02-04T09:51:57.027Z,-1.31
2023-02-04T09:57:01.618Z,-1.26
2023-02-04T10:02:23.622Z,-1.32
2023-02-04T10:07:28.977Z,-1.35
2023-02-04T10:12:33.673Z,-1.09
2023-02-04T10:17:39.441Z,-1.15
2023-02-04T10:22:44.208Z,-1.05
2023-02-04T10:27:53.982Z,-1.23
2023-02-04T10:32:59.988Z,-1.36
2023-02-04T10:38:06.821Z,-0.80
2023-02-04T10:43:15.627Z,-0.58
2023-02-04T10:48:21.602Z,-0.72
2023-02-04T10:53:45.462Z,-0.73
2023-02-04T10:58:50.506Z,-0.34
2023-02-04T11:03:56.125Z,-0.44
2023-02-04T11:09:00.915Z,-0.42
2023-02-04T11:14:05.329Z,-0.44
2023-02-04T11:19:16.472Z,-0.54
2023-02-04T11:24:27.347Z,-0.38
2023-02-04T11:29:37.072Z,-0.38
2023-02-04T11:34:52.957Z,-0.36
2023-02-04T11:40:01.608Z,-0.25
2023-02-04T11:45:17.031Z,-0.44
2023-02-04T11:50:26.675Z,-0.50
2023-02-04T11:55:32.864Z,-0.41
2023-02-04T12:00:38.503Z,-0.54
2023-02-04T12:05:47.955Z,-0.40
2023-02-04T12:11:00.807Z,-0.20
2023-02-04T12:16:08.498Z,0.11
2023-02-04T12:21:15.541Z,0.05
2023-02-04T12:26:19.958Z,-0.43
2023-02-04T12:31:25.099Z,-0.73
2023-02-04T12:36:30.966Z,-0.59
2023-02-04T12:41:35.101Z,-0.56
2023-02-04T12:46:40.026Z,-0.56
2023-02-04T12:51:45.791Z,-0.76
2023-02-04T12:56:52.608Z,-0.93
2023-02-04T13:01:57.165Z,-1.00
2023-02-04T13:07:03.785Z,-0.98
2023-02-04T13:12:08.349Z,-1.14
2023-02-04T13:17:12.961Z,-1.10
2023-02-04T13:22:18.853Z,-1.10
2023-02-04T13:27:23.304Z,-1.10
2023-02-04T13:32:28.247Z,-1.10
2023-02-04T13:37:34.012Z,-0.91
2023-02-04T13:42:38.337Z,-1.00
2023-02-04T13:47:42.446Z,-1.10
2023-02-04T13:52:48.182Z,-0.89
2023-02-04T13:57:52.500Z,-0.72
2023-02-04T14:02:57.612Z,-0.34
2023-02-04T14:08:13.117Z,-0.65
2023-02-04T14:13:17.297Z,-0.87
2023-02-04T14:18:22.037Z,-0.85
2023-02-04T14:23:27.392Z,-1.00
2023-02-04T14:28:31.849Z,-0.82
2023-02-04T14:33:36.516Z,-0.77
2023-02-04T14:38:42.016Z,-0.90
2023-02-04T14:43:46.689Z,-0.98
2023-02-04T14:48:52.109Z,-1.14
2023-02-04T14:53:57.858Z,-1.25
2023-02-04T14:59:02.265Z,-1.22
2023-02-04T15:04:06.678Z,-1.24
2023-02-04T15:09:12.206Z,-1.24
2023-02-04T15:14:16.357Z,-1.25
2023-02-04T15:19:21.623Z,-1.27
2023-02-04T15:24:29.490Z,-1.40
2023-02-04T15:29:34.004Z,-1.53
2023-02-04T15:34:40.905Z,-1.52
2023-02-04T15:39:46.723Z,-1.57
2023-02-04T15:44:51.486Z,-1.64
2023-02-04T15:49:55.837Z,-1.65
2023-02-04T15:55:01.823Z,-1.70
2023-02-04T16:00:09.487Z,-1.83
2023-02-04T16:05:13.867Z,-1.78
2023-02-04T16:10:20.978Z,-1.76
2023-02-04T16:15:26.078Z,-1.77
2023-02-04T16:20:30.953Z,-1.77
2023-02-04T16:25:36.795Z,-1.72
2023-02-04T16:30:41.362Z,-1.79
2023-02-04T16:36:03.840Z,-1.85
2023-02-04T16:41:09.730Z,-1.88
2023-02-04T16:46:16.078Z,-1.92
2023-02-04T16:51:20.649Z,-2.01
2023-02-04T16:56:30.060Z,-2.02
2023-02-04T17:01:34.379Z,-2.01
2023-02-04T17:06:38.670Z,-2.01
2023-02-04T17:11:44.426Z,-1.96
2023-02-04T17:16:51.524Z,-1.95
2023-02-04T17:21:55.901Z,-1.91
2023-02-04T17:27:03.321Z,-1.87
2023-02-04T17:32:08.727Z,-1.90
2023-02-04T17:37:13.528Z,-1.89
2023-02-04T17:42:19.468Z,-1.87
2023-02-04T17:47:23.993Z,-1.82
2023-02-04T17:52:30.817Z,-1.81
2023-02-04T17:57:36.574Z,-1.80
2023-02-04T18:02:47.923Z,-1.76
2023-02-04T18:08:00.753Z,-1.77
2023-02-04T18:13:15.309Z,-1.74
2023-02-04T18:18:24.434Z,-1.81
2023-02-04T18:23:31.378Z,-1.80
2023-02-04T18:28:39.522Z,-1.82
2023-02-04T18:33:45.314Z,-1.79
2023-02-04T18:38:50.799Z,-1.88
2023-02-04T18:44:03.317Z,-1.97
2023-02-04T18:49:18.498Z,-1.90
2023-02-04T18:54:31.428Z,-2.04
2023-02-04T18:59:37.518Z,-2.04
2023-02-04T19:04:41.649Z,-2.11
2023-02-04T19:09:45.851Z,-2.21
2023-02-04T19:14:51.255Z,-2.32
2023-02-04T19:20:01.724Z,-2.37
2023-02-04T19:25:29.564Z,-2.54
2023-02-04T19:30:50.843Z,-2.63
2023-02-04T19:35:55.046Z,-2.69
2023-02-04T19:41:00.318Z,-2.73
2023-02-04T19:46:20.842Z,-2.73
2023-02-04T19:51:30.549Z,-2.74
2023-02-04T19:56:38.747Z,-2.66
2023-02-04T20:01:44.452Z,-2.63
2023-02-04T20:06:49.392Z,-2.66
2023-02-04T20:12:06.150Z,-2.69
2023-02-04T20:17:22.479Z,-2.82
2023-02-04T20:22:51.325Z,-2.92
2023-02-04T20:28:01.025Z,-2.93
2023-02-04T20:33:34.306Z,-2.93
2023-02-04T20:38:38.690Z,-2.82
2023-02-04T20:43:44.475Z,-2.77
2023-02-04T20:48:50.960Z,-2.74
2023-02-04T20:53:58.281Z,-2.77
2023-02-04T20:59:28.402Z,-2.72
2023-02-04T21:04:41.835Z,-2.73
2023-02-04T21:09:48.114Z,-2.75
2023-02-04T21:14:52.445Z,-2.77
2023-02-04T21:19:58.107Z,-2.78
2023-02-04T21:25:02.410Z,-2.77
2023-02-04T21:30:08.303Z,-2.78
2023-02-04T21:35:13.934Z,-2.75
2023-02-04T21:40:22.043Z,-2.69
2023-02-04T21:45:27.461Z,-2.71
2023-02-04T21:50:33.994Z,-2.69
2023-02-04T21:55:38.784Z,-2.65
2023-02-04T22:00:42.918Z,-2.68
2023-02-04T22:05:48.464Z,-2.66
2023-02-04T22:10:52.609Z,-2.65
2023-02-04T22:15:56.768Z,-2.64
2023-02-04T22:21:02.333Z,-2.68
2023-02-04T22:26:09.338Z,-2.64
2023-02-04T22:31:14.931Z,-2.68
2023-02-04T22:36:20.690Z,-2.66
2023-02-04T22:41:24.986Z,-2.67
2023-02-04T22:46:29.855Z,-2.67
2023-02-04T22:51:36.017Z,-2.65
2023-02-04T22:56:40.380Z,-2.73
2023-02-04T23:01:44.598Z,-2.70
2023-02-04T23:06:50.468Z,-2.69
2023-02-04T23:11:56.778Z,-2.71
2023-02-04T23:17:01.188Z,-2.73
2023-02-04T23:22:07.535Z,-2.73
2023-02-04T23:27:12.046Z,-2.75
2023-02-04T23:32:16.926Z,-2.82
2023-02-04T23:37:22.706Z,-2.82
2023-02-04T23:42:27.142Z,-2.85
2023-02-04T23:47:31.855Z,-2.80
2023-02-04T23:52:37.417Z,-2.84
2023-02-04T23:57:41.745Z,-2.83
